Time,TemperatureF,DewpointF,PressureIn,WindDirection,WindDirectionDegrees,WindSpeedMPH,WindSpeedGustMPH,Humidity,HourlyPrecipIn,Conditions,Clouds,dailyrainin,SoftwareType,DateUTC
2013-05-20 00:01:00,60.1,59.2,30.18,SSW,197,2.7,4.9,97,0.00,,---,0.00,VWS V14.01,2013-05-20 04:01:00,
2013-05-20 00:02:00,60.1,59.2,30.18,SSW,195,3.1,3.6,97,0.00,,---,0.00,VWS V14.01,2013-05-20 04:02:00,
2013-05-20 00:03:00,60.1,59.2,30.18,SSW,211,3.6,5.4,97,0.00,,---,0.00,VWS V14.01,2013-05-20 04:03:00,
2013-05-20 00:04:00,60.1,59.2,30.18,SSW,210,3.1,5.4,97,0.00,,---,0.00,VWS V14.01,2013-05-20 04:04:00,
2013-05-20 00:06:00,60.1,59.2,30.18,SSW,202,3.1,5.8,97,0.00,,---,0.00,VWS V14.01,2013-05-20 04:06:00,
2013-05-20 00:12:00,60.1,59.2,30.18,SSW,213,5.8,5.8,97,0.00,,---,0.00,VWS V14.01,2013-05-20 04:12:00,
2013-05-20 00:17:00,60.3,59.4,30.18,SSW,194,3.1,7.6,97,0.00,,---,0.00,VWS V14.01,2013-05-20 04:17:00,
2013-05-20 00:22:00,60.3,59.4,30.18,SSW,204,4.0,5.8,97,0.00,,---,0.00,VWS V14.01,2013-05-20 04:22:00,
2013-05-20 00:28:00,60.3,59.4,30.18,South,184,6.3,8.1,97,0.00,,---,0.00,VWS V14.01,2013-05-20 04:28:00,
2013-05-20 00:33:00,60.3,59.4,30.18,SSW,203,6.3,7.2,97,0.00,,---,0.00,VWS V14.01,2013-05-20 04:33:00,
2013-05-20 00:38:00,60.3,59.4,30.18,South,190,4.0,5.8,97,0.00,,---,0.00,VWS V14.01,2013-05-20 04:38:00,
2013-05-20 00:43:00,60.3,59.4,30.18,South,173,5.8,6.3,97,0.00,,---,0.00,VWS V14.01,2013-05-20 04:43:00,
2013-05-20 00:48:00,60.3,59.4,30.18,South,182,6.3,6.3,97,0.00,,---,0.00,VWS V14.01,2013-05-20 04:48:00,
2013-05-20 00:53:00,60.3,59.4,30.18,SSW,204,6.3,7.6,97,0.00,,---,0.00,VWS V14.01,2013-05-20 04:53:00,
2013-05-20 00:58:00,60.3,59.7,30.18,SSW,209,6.7,6.7,98,0.00,,---,0.00,VWS V14.01,2013-05-20 04:58:00,
2013-05-20 01:03:00,60.3,59.4,30.18,South,185,5.8,6.3,97,0.00,,---,0.00,VWS V14.01,2013-05-20 05:03:00,
2013-05-20 01:08:00,60.3,59.7,30.18,South,189,6.3,8.1,98,0.00,,---,0.00,VWS V14.01,2013-05-20 05:08:00,
2013-05-20 01:14:00,60.3,59.7,30.18,SSW,207,5.8,6.3,98,0.00,,---,0.00,VWS V14.01,2013-05-20 05:14:00,
2013-05-20 01:19:00,60.3,59.7,30.18,SSW,204,6.3,8.7,98,0.00,,---,0.00,VWS V14.01,2013-05-20 05:19:00,
2013-05-20 01:24:00,60.3,59.7,30.18,SW,215,5.8,6.3,98,0.00,,---,0.00,VWS V14.01,2013-05-20 05:24:00,
2013-05-20 01:29:00,60.3,59.7,30.15,SSW,200,4.0,5.4,98,0.00,,---,0.00,VWS V14.01,2013-05-20 05:29:00,
2013-05-20 01:34:00,60.4,59.9,30.15,SW,224,8.7,8.7,98,0.00,,---,0.00,VWS V14.01,2013-05-20 05:34:00,
2013-05-20 01:39:00,60.4,59.9,30.15,WSW,238,5.4,6.7,98,0.00,,---,0.00,VWS V14.01,2013-05-20 05:39:00,
2013-05-20 01:44:00,60.4,59.9,30.15,SSW,197,6.3,7.2,98,0.00,,---,0.00,VWS V14.01,2013-05-20 05:44:00,
2013-05-20 01:49:00,60.4,59.9,30.15,SW,234,7.2,7.2,98,0.00,,---,0.00,VWS V14.01,2013-05-20 05:49:00,
2013-05-20 01:54:00,60.6,60.1,30.15,SSW,193,5.4,5.4,98,0.00,,---,0.00,VWS V14.01,2013-05-20 05:54:00,
2013-05-20 01:59:00,60.6,60.1,30.15,South,185,5.4,11.0,98,0.00,,---,0.00,VWS V14.01,2013-05-20 05:59:00,
2013-05-20 02:04:00,60.8,60.2,30.15,SW,233,3.6,5.8,98,0.00,,---,0.00,VWS V14.01,2013-05-20 06:04:00,
2013-05-20 02:09:00,61.0,60.4,30.15,SSW,211,6.3,8.7,98,0.00,,---,0.00,VWS V14.01,2013-05-20 06:09:00,
2013-05-20 02:14:00,61.0,60.4,30.15,SSW,193,8.1,10.5,98,0.00,,---,0.00,VWS V14.01,2013-05-20 06:14:00,
2013-05-20 02:19:00,61.0,60.4,30.15,South,170,6.3,8.7,98,0.00,,---,0.00,VWS V14.01,2013-05-20 06:19:00,
2013-05-20 02:24:00,61.0,60.4,30.15,SSW,200,9.2,9.2,98,0.00,,---,0.00,VWS V14.01,2013-05-20 06:24:00,
2013-05-20 02:29:00,61.0,60.4,30.12,SW,214,8.1,11.4,98,0.00,,---,0.00,VWS V14.01,2013-05-20 06:29:00,
2013-05-20 02:34:00,61.2,60.6,30.12,SSW,195,8.1,9.6,98,0.00,,---,0.00,VWS V14.01,2013-05-20 06:34:00,
2013-05-20 02:39:00,61.2,60.6,30.12,SSW,212,5.4,5.8,98,0.00,,---,0.00,VWS V14.01,2013-05-20 06:39:00,
2013-05-20 02:44:00,61.2,60.6,30.12,WSW,238,8.3,8.3,98,0.00,,---,0.00,VWS V14.01,2013-05-20 06:44:00,
2013-05-20 02:49:00,61.2,60.6,30.12,WSW,238,7.6,7.6,98,0.00,,---,0.00,VWS V14.01,2013-05-20 06:49:00,
2013-05-20 02:54:00,61.0,60.4,30.12,South,185,8.3,8.3,98,0.00,,---,0.00,VWS V14.01,2013-05-20 06:54:00,
2013-05-20 02:59:00,61.0,60.4,30.12,South,187,6.3,6.3,98,0.00,,---,0.00,VWS V14.01,2013-05-20 06:59:00,
2013-05-20 03:04:00,61.0,60.4,30.12,SW,216,3.1,7.6,98,0.00,,---,0.00,VWS V14.01,2013-05-20 07:04:00,
2013-05-20 03:09:00,61.0,60.4,30.12,WSW,250,5.4,5.4,98,0.00,,---,0.00,VWS V14.01,2013-05-20 07:09:00,
2013-05-20 03:14:00,61.0,60.4,30.12,WSW,256,5.4,5.4,98,0.00,,---,0.00,VWS V14.01,2013-05-20 07:14:00,
2013-05-20 03:19:00,61.2,60.6,30.12,SW,225,5.4,5.4,98,0.00,,---,0.00,VWS V14.01,2013-05-20 07:19:00,
2013-05-20 03:24:00,61.2,60.6,30.12,WSW,252,2.7,8.3,98,0.00,,---,0.00,VWS V14.01,2013-05-20 07:24:00,
2013-05-20 03:29:00,61.2,60.6,30.12,SSW,210,5.4,5.4,98,0.00,,---,0.00,VWS V14.01,2013-05-20 07:29:00,
2013-05-20 03:34:00,61.3,60.8,30.12,SW,224,8.3,8.3,98,0.00,,---,0.00,VWS V14.01,2013-05-20 07:34:00,
2013-05-20 03:39:00,61.2,60.6,30.12,SSW,201,6.3,8.1,98,0.00,,---,0.00,VWS V14.01,2013-05-20 07:39:00,
2013-05-20 03:44:00,61.2,60.6,30.12,West,268,5.8,10.5,98,0.00,,---,0.00,VWS V14.01,2013-05-20 07:44:00,
2013-05-20 03:49:00,61.2,60.6,30.12,WSW,251,8.1,8.1,98,0.00,,---,0.00,VWS V14.01,2013-05-20 07:49:00,
2013-05-20 03:54:00,61.2,60.6,30.12,WSW,243,5.4,5.4,98,0.00,,---,0.00,VWS V14.01,2013-05-20 07:54:00,
2013-05-20 03:59:00,61.2,60.6,30.12,WSW,253,3.6,4.9,98,0.00,,---,0.00,VWS V14.01,2013-05-20 07:59:00,
2013-05-20 04:04:00,61.3,60.8,30.12,SW,215,8.3,8.3,98,0.00,,---,0.00,VWS V14.01,2013-05-20 08:04:00,
2013-05-20 04:09:00,61.3,60.8,30.12,WSW,258,5.8,5.8,98,0.00,,---,0.00,VWS V14.01,2013-05-20 08:09:00,
2013-05-20 04:14:00,61.3,60.8,30.12,WSW,257,5.8,5.8,98,0.00,,---,0.00,VWS V14.01,2013-05-20 08:14:00,
2013-05-20 04:19:00,61.3,60.8,30.12,SW,230,3.6,5.4,98,0.00,,---,0.00,VWS V14.01,2013-05-20 08:19:00,
2013-05-20 04:24:00,61.2,60.6,30.12,West,262,4.0,5.8,98,0.00,,---,0.00,VWS V14.01,2013-05-20 08:24:00,
2013-05-20 04:29:00,61.2,60.6,30.12,SW,225,5.8,10.1,98,0.00,,---,0.00,VWS V14.01,2013-05-20 08:29:00,
2013-05-20 04:34:00,61.2,60.6,30.12,SW,232,3.6,5.4,98,0.00,,---,0.00,VWS V14.01,2013-05-20 08:34:00,
2013-05-20 04:39:00,61.2,60.6,30.12,WSW,256,3.1,5.4,98,0.00,,---,0.00,VWS V14.01,2013-05-20 08:39:00,
2013-05-20 04:44:00,61.2,60.6,30.12,West,276,6.3,6.3,98,0.00,,---,0.00,VWS V14.01,2013-05-20 08:44:00,
2013-05-20 04:49:00,61.0,60.4,30.12,WSW,258,2.2,5.8,98,0.00,,---,0.00,VWS V14.01,2013-05-20 08:49:00,
2013-05-20 04:54:00,61.0,60.4,30.12,WSW,237,5.4,5.4,98,0.00,,---,0.00,VWS V14.01,2013-05-20 08:54:00,
2013-05-20 04:59:00,61.0,60.4,30.12,SSW,209,5.8,7.2,98,0.00,,---,0.00,VWS V14.01,2013-05-20 08:59:00,
2013-05-20 05:04:00,61.0,60.4,30.12,WSW,239,3.6,5.4,98,0.00,,---,0.00,VWS V14.01,2013-05-20 09:04:00,
2013-05-20 05:09:00,61.0,60.4,30.12,West,267,8.1,8.1,98,0.00,,---,0.00,VWS V14.01,2013-05-20 09:09:00,
2013-05-20 05:14:00,61.2,60.6,30.12,WSW,254,5.4,5.4,98,0.00,,---,0.00,VWS V14.01,2013-05-20 09:14:00,
2013-05-20 05:19:00,61.3,60.8,30.12,WSW,253,6.3,6.3,98,0.00,,---,0.00,VWS V14.01,2013-05-20 09:19:00,
2013-05-20 05:24:00,61.3,60.8,30.12,SW,235,5.4,11.0,98,0.00,,---,0.00,VWS V14.01,2013-05-20 09:24:00,
2013-05-20 05:29:00,61.3,60.8,30.12,SW,231,6.3,10.1,98,0.00,,---,0.00,VWS V14.01,2013-05-20 09:29:00,
2013-05-20 05:34:00,61.5,61.0,30.12,South,178,5.4,7.6,98,0.00,,---,0.00,VWS V14.01,2013-05-20 09:34:00,
2013-05-20 05:39:00,61.5,61.0,30.12,West,261,8.1,10.1,98,0.00,,---,0.00,VWS V14.01,2013-05-20 09:39:00,
2013-05-20 05:44:00,61.5,61.0,30.12,SW,236,6.7,9.6,98,0.00,,---,0.00,VWS V14.01,2013-05-20 09:44:00,
2013-05-20 05:49:00,61.3,60.8,30.12,WSW,251,3.6,4.0,98,0.00,,---,0.00,VWS V14.01,2013-05-20 09:49:00,
2013-05-20 05:54:00,61.3,60.8,30.12,West,280,6.3,10.1,98,0.00,,---,0.00,VWS V14.01,2013-05-20 09:54:00,
2013-05-20 05:59:00,61.3,60.8,30.12,WSW,257,4.0,4.0,98,0.00,,---,0.00,VWS V14.01,2013-05-20 09:59:00,
2013-05-20 06:04:00,61.3,60.8,30.12,SW,229,4.0,7.6,98,0.00,,---,0.00,VWS V14.01,2013-05-20 10:04:00,
2013-05-20 06:09:00,61.3,60.8,30.12,South,191,5.8,8.1,98,0.00,,---,0.00,VWS V14.01,2013-05-20 10:09:00,
2013-05-20 06:14:00,61.2,60.6,30.12,SW,236,3.6,5.8,98,0.00,,---,0.00,VWS V14.01,2013-05-20 10:14:00,
2013-05-20 06:19:00,61.2,60.6,30.12,WSW,240,5.8,5.8,98,0.00,,---,0.00,VWS V14.01,2013-05-20 10:19:00,
2013-05-20 06:24:00,61.2,60.6,30.12,WSW,244,5.4,6.3,98,0.00,,---,0.00,VWS V14.01,2013-05-20 10:24:00,
2013-05-20 06:29:00,61.0,60.4,30.12,SW,217,4.9,4.9,98,0.00,,---,0.00,VWS V14.01,2013-05-20 10:29:00,
2013-05-20 06:34:00,61.0,60.4,30.12,SW,231,5.4,7.6,98,0.00,,---,0.00,VWS V14.01,2013-05-20 10:34:00,
2013-05-20 06:39:00,61.0,60.4,30.12,WSW,249,3.1,5.4,98,0.00,,---,0.00,VWS V14.01,2013-05-20 10:39:00,
2013-05-20 06:44:00,61.0,60.4,30.12,SW,231,6.3,6.3,98,0.00,,---,0.00,VWS V14.01,2013-05-20 10:44:00,
2013-05-20 06:49:00,61.0,60.4,30.12,WSW,258,2.7,7.6,98,0.00,,---,0.00,VWS V14.01,2013-05-20 10:49:00,
2013-05-20 06:54:00,61.0,60.4,30.12,WSW,238,4.0,5.8,98,0.00,,---,0.00,VWS V14.01,2013-05-20 10:54:00,
2013-05-20 06:59:00,61.2,60.6,30.12,SW,222,2.7,4.5,98,0.00,,---,0.00,VWS V14.01,2013-05-20 10:59:00,
2013-05-20 07:04:00,61.2,60.6,30.12,South,181,5.4,5.4,98,0.00,,---,0.00,VWS V14.01,2013-05-20 11:04:00,
2013-05-20 07:09:00,61.3,60.8,30.12,SSW,203,3.1,6.3,98,0.00,,---,0.00,VWS V14.01,2013-05-20 11:09:00,
2013-05-20 07:14:00,61.2,60.6,30.12,SSW,203,4.9,5.8,98,0.00,,---,0.00,VWS V14.01,2013-05-20 11:14:00,
2013-05-20 07:19:00,61.3,60.8,30.12,SSW,194,5.8,6.3,98,0.00,,---,0.00,VWS V14.01,2013-05-20 11:19:00,
2013-05-20 07:24:00,61.3,60.5,30.12,SW,214,6.7,6.7,97,0.00,,---,0.00,VWS V14.01,2013-05-20 11:24:00,
2013-05-20 07:29:00,61.5,60.7,30.12,SSW,197,5.4,6.3,97,0.00,,---,0.00,VWS V14.01,2013-05-20 11:29:00,
2013-05-20 07:34:00,61.5,60.7,30.12,SSW,211,4.0,6.3,97,0.00,,---,0.00,VWS V14.01,2013-05-20 11:34:00,
2013-05-20 07:39:00,61.9,61.0,30.12,West,270,3.1,5.8,97,0.00,,---,0.00,VWS V14.01,2013-05-20 11:39:00,
2013-05-20 07:44:00,61.9,61.0,30.12,WSW,237,4.5,8.1,97,0.00,,---,0.00,VWS V14.01,2013-05-20 11:44:00,
2013-05-20 07:49:00,62.2,61.7,30.12,West,269,3.6,4.0,98,0.00,,---,0.00,VWS V14.01,2013-05-20 11:49:00,
2013-05-20 07:54:00,62.6,61.7,30.12,SW,218,0.0,4.9,97,0.00,,---,0.00,VWS V14.01,2013-05-20 11:54:00,
2013-05-20 07:59:00,62.8,61.9,30.15,SW,218,7.6,7.6,97,0.00,,---,0.00,VWS V14.01,2013-05-20 11:59:00,
2013-05-20 08:04:00,62.8,61.9,30.15,SW,235,2.7,4.0,97,0.00,,---,0.00,VWS V14.01,2013-05-20 12:04:00,
2013-05-20 08:09:00,63.1,62.3,30.15,SW,231,5.4,6.3,97,0.00,,---,0.00,VWS V14.01,2013-05-20 12:09:00,
2013-05-20 08:14:00,63.1,62.3,30.15,WSW,239,3.1,3.6,97,0.00,,---,0.00,VWS V14.01,2013-05-20 12:14:00,
2013-05-20 08:19:00,63.5,62.6,30.15,WSW,240,2.2,5.8,97,0.00,,---,0.00,VWS V14.01,2013-05-20 12:19:00,
2013-05-20 08:24:00,63.7,62.5,30.15,SW,218,3.1,3.1,96,0.00,,---,0.00,VWS V14.01,2013-05-20 12:24:00,
2013-05-20 08:29:00,63.5,62.3,30.15,WSW,239,5.4,5.8,96,0.00,,---,0.00,VWS V14.01,2013-05-20 12:29:00,
2013-05-20 08:34:00,64.4,62.9,30.15,WSW,240,4.0,4.0,95,0.00,,---,0.00,VWS V14.01,2013-05-20 12:34:00,
2013-05-20 08:39:00,64.8,63.0,30.15,SW,229,8.7,8.7,94,0.00,,---,0.00,VWS V14.01,2013-05-20 12:39:00,
2013-05-20 08:44:00,65.1,63.0,30.15,WSW,243,8.1,8.1,93,0.00,,---,0.00,VWS V14.01,2013-05-20 12:44:00,
2013-05-20 08:49:00,65.1,62.4,30.15,SW,229,6.3,8.1,91,0.00,,---,0.00,VWS V14.01,2013-05-20 12:49:00,
2013-05-20 08:54:00,65.5,62.5,30.15,SW,236,6.3,8.3,90,0.00,,---,0.00,VWS V14.01,2013-05-20 12:54:00,
2013-05-20 08:59:00,65.7,62.3,30.15,SSW,199,5.8,8.3,89,0.00,,---,0.00,VWS V14.01,2013-05-20 12:59:00,
2013-05-20 09:04:00,65.8,62.5,30.15,SW,224,5.8,7.6,89,0.00,,---,0.00,VWS V14.01,2013-05-20 13:04:00,
2013-05-20 09:09:00,66.0,62.0,30.15,SW,214,8.1,8.1,87,0.00,,---,0.00,VWS V14.01,2013-05-20 13:09:00,
2013-05-20 09:14:00,66.0,62.0,30.15,SSW,196,6.3,6.3,87,0.00,,---,0.00,VWS V14.01,2013-05-20 13:14:00,
2013-05-20 09:19:00,65.7,61.4,30.15,SSW,205,5.4,5.8,86,0.00,,---,0.00,VWS V14.01,2013-05-20 13:19:00,
2013-05-20 09:24:00,65.7,61.4,30.15,South,176,5.4,8.7,86,0.00,,---,0.00,VWS V14.01,2013-05-20 13:24:00,
2013-05-20 09:29:00,66.2,61.6,30.15,WSW,253,7.6,8.7,85,0.00,,---,0.00,VWS V14.01,2013-05-20 13:29:00,
2013-05-20 09:34:00,66.6,61.6,30.15,SSW,198,8.7,11.0,84,0.00,,---,0.00,VWS V14.01,2013-05-20 13:34:00,
2013-05-20 09:40:00,66.7,61.4,30.15,SW,231,7.6,12.3,83,0.00,,---,0.00,VWS V14.01,2013-05-20 13:40:00,
2013-05-20 09:45:00,66.6,60.9,30.15,SW,234,10.5,10.5,82,0.00,,---,0.00,VWS V14.01,2013-05-20 13:45:00,
2013-05-20 09:50:00,66.6,60.9,30.15,SW,223,6.3,10.5,82,0.00,,---,0.00,VWS V14.01,2013-05-20 13:50:00,
2013-05-20 09:55:00,66.9,61.2,30.15,SW,230,7.6,11.0,82,0.00,,---,0.00,VWS V14.01,2013-05-20 13:55:00,
2013-05-20 10:00:00,67.3,61.3,30.15,SW,221,6.3,9.6,81,0.00,,---,0.00,VWS V14.01,2013-05-20 14:00:00,
2013-05-20 10:05:00,67.3,60.9,30.15,SW,218,8.3,8.7,80,0.00,,---,0.00,VWS V14.01,2013-05-20 14:05:00,
2013-05-20 10:10:00,67.1,60.7,30.15,SSW,207,8.1,11.0,80,0.00,,---,0.00,VWS V14.01,2013-05-20 14:10:00,
2013-05-20 10:15:00,66.7,60.4,30.15,SW,215,4.0,10.1,80,0.00,,---,0.00,VWS V14.01,2013-05-20 14:15:00,
2013-05-20 10:20:00,66.2,60.2,30.15,SW,223,12.3,12.3,81,0.00,,---,0.00,VWS V14.01,2013-05-20 14:20:00,
2013-05-20 10:25:00,65.7,60.0,30.15,SSW,207,8.7,10.5,82,0.00,,---,0.00,VWS V14.01,2013-05-20 14:25:00,
2013-05-20 10:30:00,65.8,60.5,30.15,SSW,209,6.3,8.3,83,0.00,,---,0.00,VWS V14.01,2013-05-20 14:30:00,
2013-05-20 10:35:00,66.2,60.5,30.15,SW,225,8.1,8.1,82,0.00,,---,0.00,VWS V14.01,2013-05-20 14:35:00,
2013-05-20 10:40:00,65.8,60.2,30.15,SSW,194,6.3,7.6,82,0.00,,---,0.00,VWS V14.01,2013-05-20 14:40:00,
2013-05-20 10:45:00,65.5,60.2,30.15,SSW,195,6.3,8.3,83,0.00,,---,0.00,VWS V14.01,2013-05-20 14:45:00,
2013-05-20 10:50:00,65.3,60.0,30.15,SSW,192,7.6,7.6,83,0.00,,---,0.00,VWS V14.01,2013-05-20 14:50:00,
2013-05-20 10:55:00,65.3,60.0,30.15,SW,217,4.9,8.7,83,0.00,,---,0.00,VWS V14.01,2013-05-20 14:55:00,
2013-05-20 11:00:00,65.3,60.3,30.15,SW,222,5.4,7.6,84,0.00,,---,0.00,VWS V14.01,2013-05-20 15:00:00,
2013-05-20 11:05:00,66.2,60.9,30.15,South,187,8.1,8.1,83,0.00,,---,0.00,VWS V14.01,2013-05-20 15:05:00,
2013-05-20 11:10:00,66.9,60.9,30.15,SW,214,5.4,8.1,81,0.00,,---,0.00,VWS V14.01,2013-05-20 15:10:00,
2013-05-20 11:15:00,67.3,60.5,30.15,SSE,166,8.3,9.2,79,0.00,,---,0.00,VWS V14.01,2013-05-20 15:15:00,
2013-05-20 11:20:00,66.6,59.8,30.15,SSW,192,8.3,8.3,79,0.00,,---,0.00,VWS V14.01,2013-05-20 15:20:00,
2013-05-20 11:25:00,67.8,61.1,30.15,South,177,5.8,5.8,79,0.00,,---,0.00,VWS V14.01,2013-05-20 15:25:00,
2013-05-20 11:30:00,66.6,59.5,30.15,SSW,195,8.7,8.7,78,0.00,,---,0.00,VWS V14.01,2013-05-20 15:30:00,
2013-05-20 11:35:00,66.4,59.7,30.15,SW,215,8.7,8.7,79,0.00,,---,0.00,VWS V14.01,2013-05-20 15:35:00,
2013-05-20 11:40:00,66.2,59.9,30.15,SSW,203,6.7,6.7,80,0.00,,---,0.00,VWS V14.01,2013-05-20 15:40:00,
2013-05-20 11:45:00,65.5,59.5,30.15,SSW,205,7.6,7.6,81,0.00,,---,0.00,VWS V14.01,2013-05-20 15:45:00,
2013-05-20 11:50:00,65.3,59.7,30.15,SSW,202,8.3,8.3,82,0.00,,---,0.00,VWS V14.01,2013-05-20 15:50:00,
2013-05-20 11:55:00,65.7,60.0,30.15,SSW,204,6.3,6.3,82,0.00,,---,0.00,VWS V14.01,2013-05-20 15:55:00,
2013-05-20 12:00:00,66.7,60.7,30.15,SSW,203,8.7,8.7,81,0.00,,---,0.00,VWS V14.01,2013-05-20 16:00:00,
2013-05-20 12:05:00,67.8,61.1,30.15,SSE,166,8.3,8.3,79,0.00,,---,0.00,VWS V14.01,2013-05-20 16:05:00,
2013-05-20 12:10:00,67.8,60.7,30.15,South,175,5.8,5.8,78,0.00,,---,0.00,VWS V14.01,2013-05-20 16:10:00,
2013-05-20 12:15:00,68.7,60.9,30.12,SSW,208,8.1,8.1,76,0.00,,---,0.00,VWS V14.01,2013-05-20 16:15:00,
2013-05-20 12:20:00,68.4,60.1,30.12,South,182,6.3,7.6,75,0.00,,---,0.00,VWS V14.01,2013-05-20 16:20:00,
2013-05-20 12:25:00,68.4,60.1,30.12,SSW,213,10.5,10.5,75,0.00,,---,0.00,VWS V14.01,2013-05-20 16:25:00,
2013-05-20 12:30:00,69.1,60.8,30.12,SW,234,8.3,8.3,75,0.00,,---,0.00,VWS V14.01,2013-05-20 16:30:00,
2013-05-20 12:35:00,70.3,61.3,30.12,WSW,256,6.7,7.2,73,0.00,,---,0.00,VWS V14.01,2013-05-20 16:35:00,
2013-05-20 12:40:00,70.5,60.7,30.12,SSW,206,9.2,9.6,71,0.00,,---,0.00,VWS V14.01,2013-05-20 16:40:00,
2013-05-20 12:45:00,70.2,60.3,30.12,South,191,8.3,10.5,71,0.00,,---,0.00,VWS V14.01,2013-05-20 16:45:00,
2013-05-20 12:50:00,70.2,60.3,30.12,SSW,193,10.5,10.5,71,0.00,,---,0.00,VWS V14.01,2013-05-20 16:50:00,
2013-05-20 12:55:00,69.6,60.2,30.12,South,190,8.7,8.7,72,0.00,,---,0.00,VWS V14.01,2013-05-20 16:55:00,
2013-05-20 13:00:00,69.3,59.9,30.12,SSE,163,8.7,8.7,72,0.00,,---,0.00,VWS V14.01,2013-05-20 17:00:00,
2013-05-20 13:05:00,69.6,60.6,30.12,SSW,197,10.5,10.5,73,0.00,,---,0.00,VWS V14.01,2013-05-20 17:05:00,
2013-05-20 13:10:00,69.8,60.4,30.12,South,182,7.2,7.6,72,0.00,,---,0.00,VWS V14.01,2013-05-20 17:10:00,
2013-05-20 13:15:00,69.8,60.4,30.12,SSW,210,10.1,12.3,72,0.00,,---,0.00,VWS V14.01,2013-05-20 17:15:00,
2013-05-20 13:20:00,70.0,60.2,30.12,SSE,161,10.1,10.1,71,0.00,,---,0.00,VWS V14.01,2013-05-20 17:20:00,
2013-05-20 13:25:00,70.5,60.7,30.12,SSW,209,7.6,8.3,71,0.00,,---,0.00,VWS V14.01,2013-05-20 17:25:00,
2013-05-20 13:30:00,71.1,60.8,30.12,South,187,8.3,8.3,70,0.00,,---,0.00,VWS V14.01,2013-05-20 17:30:00,
2013-05-20 13:35:00,70.5,60.3,30.12,SW,218,11.0,11.0,70,0.00,,---,0.00,VWS V14.01,2013-05-20 17:35:00,
2013-05-20 13:40:00,70.5,60.3,30.12,SSW,208,8.1,8.3,70,0.00,,---,0.00,VWS V14.01,2013-05-20 17:40:00,
2013-05-20 13:45:00,70.7,60.5,30.09,SSW,195,9.6,9.6,70,0.00,,---,0.00,VWS V14.01,2013-05-20 17:45:00,
2013-05-20 13:50:00,70.7,60.5,30.09,SSW,201,8.3,10.1,70,0.00,,---,0.00,VWS V14.01,2013-05-20 17:50:00,
2013-05-20 13:55:00,70.9,60.6,30.09,SSW,194,11.0,11.0,70,0.00,,---,0.00,VWS V14.01,2013-05-20 17:55:00,
2013-05-20 14:00:00,70.7,60.0,30.09,SSW,194,8.3,10.5,69,0.00,,---,0.00,VWS V14.01,2013-05-20 18:00:00,
2013-05-20 14:05:00,70.7,60.0,30.09,SSW,206,10.1,11.0,69,0.00,,---,0.00,VWS V14.01,2013-05-20 18:05:00,
2013-05-20 14:10:00,71.2,60.6,30.09,SSW,213,11.0,11.0,69,0.00,,---,0.00,VWS V14.01,2013-05-20 18:10:00,
2013-05-20 14:15:00,71.6,60.9,30.09,South,170,7.6,8.1,69,0.00,,---,0.00,VWS V14.01,2013-05-20 18:15:00,
2013-05-20 14:20:00,70.9,60.6,30.09,SSW,197,9.6,9.6,70,0.00,,---,0.00,VWS V14.01,2013-05-20 18:20:00,
2013-05-20 14:25:00,70.9,60.2,30.09,SSW,204,10.1,10.1,69,0.00,,---,0.00,VWS V14.01,2013-05-20 18:25:00,
2013-05-20 14:30:00,70.3,60.1,30.09,South,176,8.3,13.2,70,0.00,,---,0.00,VWS V14.01,2013-05-20 18:30:00,
2013-05-20 14:35:00,71.1,60.8,30.09,South,188,10.5,10.5,70,0.00,,---,0.00,VWS V14.01,2013-05-20 18:35:00,
2013-05-20 14:40:00,71.6,60.5,30.09,SSE,158,8.1,10.5,68,0.00,,---,0.00,VWS V14.01,2013-05-20 18:40:00,
2013-05-20 14:45:00,72.0,60.4,30.09,SSW,194,13.2,13.2,67,0.00,,---,0.00,VWS V14.01,2013-05-20 18:45:00,
2013-05-20 14:50:00,72.0,60.4,30.09,SSW,209,8.3,8.3,67,0.00,,---,0.00,VWS V14.01,2013-05-20 18:50:00,
2013-05-20 14:55:00,72.5,60.9,30.09,SW,219,7.6,9.2,67,0.00,,---,0.00,VWS V14.01,2013-05-20 18:55:00,
2013-05-20 15:00:00,72.1,61.0,30.09,WSW,250,8.7,8.7,68,0.00,,---,0.00,VWS V14.01,2013-05-20 19:00:00,
2013-05-20 15:05:00,72.0,60.8,30.09,South,190,11.0,12.3,68,0.00,,---,0.00,VWS V14.01,2013-05-20 19:05:00,
2013-05-20 15:10:00,72.0,60.4,30.09,SW,218,8.1,10.1,67,0.00,,---,0.00,VWS V14.01,2013-05-20 19:10:00,
2013-05-20 15:15:00,72.1,61.0,30.09,SSW,211,10.5,10.5,68,0.00,,---,0.00,VWS V14.01,2013-05-20 19:15:00,
2013-05-20 15:20:00,72.3,60.8,30.09,SSW,210,8.1,10.1,67,0.00,,---,0.00,VWS V14.01,2013-05-20 19:20:00,
2013-05-20 15:25:00,72.5,60.9,30.09,South,182,3.6,8.3,67,0.00,,---,0.00,VWS V14.01,2013-05-20 19:25:00,
2013-05-20 15:30:00,73.0,61.0,30.09,SW,221,8.1,8.7,66,0.00,,---,0.00,VWS V14.01,2013-05-20 19:30:00,
2013-05-20 15:35:00,72.7,60.7,30.09,South,191,4.0,11.0,66,0.00,,---,0.00,VWS V14.01,2013-05-20 19:35:00,
2013-05-20 15:40:00,72.9,60.8,30.09,SW,230,8.3,11.0,66,0.00,,---,0.00,VWS V14.01,2013-05-20 19:40:00,
2013-05-20 15:45:00,73.2,60.8,30.09,SW,230,11.4,11.4,65,0.00,,---,0.00,VWS V14.01,2013-05-20 19:45:00,
2013-05-20 15:50:00,73.8,61.3,30.09,SW,221,3.1,8.1,65,0.00,,---,0.00,VWS V14.01,2013-05-20 19:50:00,
2013-05-20 15:55:00,73.4,60.9,30.09,SSW,202,6.3,8.7,65,0.00,,---,0.00,VWS V14.01,2013-05-20 19:55:00,
2013-05-20 16:00:00,73.9,61.0,30.09,SW,221,6.7,10.1,64,0.00,,---,0.00,VWS V14.01,2013-05-20 20:00:00,
2013-05-20 16:05:00,73.4,60.5,30.09,SE,125,7.6,9.6,64,0.00,,---,0.00,VWS V14.01,2013-05-20 20:05:00,
2013-05-20 16:10:00,73.4,60.9,30.09,SSW,201,11.0,11.0,65,0.00,,---,0.00,VWS V14.01,2013-05-20 20:10:00,
2013-05-20 16:15:00,73.2,61.2,30.06,SSW,213,5.4,6.3,66,0.00,,---,0.00,VWS V14.01,2013-05-20 20:15:00,
2013-05-20 16:20:00,73.0,61.0,30.06,SSW,194,6.3,8.7,66,0.00,,---,0.00,VWS V14.01,2013-05-20 20:20:00,
2013-05-20 16:25:00,72.9,60.8,30.06,SW,214,8.7,9.6,66,0.00,,---,0.00,VWS V14.01,2013-05-20 20:25:00,
2013-05-20 16:30:00,73.0,61.0,30.06,SSW,193,6.3,8.7,66,0.00,,---,0.00,VWS V14.01,2013-05-20 20:30:00,
2013-05-20 16:35:00,73.8,61.3,30.06,SW,226,7.6,8.1,65,0.00,,---,0.00,VWS V14.01,2013-05-20 20:35:00,
2013-05-20 16:40:00,73.8,61.3,30.06,SSW,212,6.3,7.6,65,0.00,,---,0.00,VWS V14.01,2013-05-20 20:40:00,
2013-05-20 16:45:00,73.6,60.7,30.06,SSW,208,5.8,8.3,64,0.00,,---,0.00,VWS V14.01,2013-05-20 20:45:00,
2013-05-20 16:50:00,73.4,60.5,30.06,SSW,200,10.1,10.1,64,0.00,,---,0.00,VWS V14.01,2013-05-20 20:50:00,
2013-05-20 16:55:00,72.9,60.8,30.06,SSW,196,8.1,8.3,66,0.00,,---,0.00,VWS V14.01,2013-05-20 20:55:00,
2013-05-20 17:00:00,72.3,60.3,30.06,South,191,8.3,10.1,66,0.00,,---,0.00,VWS V14.01,2013-05-20 21:00:00,
2013-05-20 17:05:00,72.3,60.8,30.06,South,190,8.7,8.7,67,0.00,,---,0.00,VWS V14.01,2013-05-20 21:05:00,
2013-05-20 17:10:00,71.4,60.7,30.06,South,179,6.7,8.1,69,0.00,,---,0.00,VWS V14.01,2013-05-20 21:10:00,
2013-05-20 17:15:00,72.3,61.2,30.06,South,178,5.8,8.3,68,0.00,,---,0.00,VWS V14.01,2013-05-20 21:15:00,
2013-05-20 17:20:00,73.0,61.5,30.06,South,173,6.3,6.3,67,0.00,,---,0.00,VWS V14.01,2013-05-20 21:20:00,
2013-05-20 17:25:00,73.0,61.5,30.06,South,177,7.6,8.1,67,0.00,,---,0.00,VWS V14.01,2013-05-20 21:25:00,
2013-05-20 17:30:00,72.5,60.9,30.06,WSW,256,3.6,10.1,67,0.00,,---,0.00,VWS V14.01,2013-05-20 21:30:00,
2013-05-20 17:36:00,72.7,61.5,30.06,SSW,206,5.8,7.6,68,0.00,,---,0.00,VWS V14.01,2013-05-20 21:36:00,
2013-05-20 17:41:00,73.2,61.6,30.06,SW,234,6.3,8.3,67,0.00,,---,0.00,VWS V14.01,2013-05-20 21:41:00,
2013-05-20 17:46:00,72.3,61.2,30.06,SW,227,5.4,8.1,68,0.00,,---,0.00,VWS V14.01,2013-05-20 21:46:00,
2013-05-20 17:51:00,73.0,61.5,30.06,SSW,209,5.4,8.3,67,0.00,,---,0.00,VWS V14.01,2013-05-20 21:51:00,
2013-05-20 17:56:00,72.5,60.9,30.06,SSW,192,8.1,10.1,67,0.00,,---,0.00,VWS V14.01,2013-05-20 21:56:00,
2013-05-20 18:01:00,72.5,61.3,30.03,SSW,210,7.6,8.1,68,0.00,,---,0.00,VWS V14.01,2013-05-20 22:01:00,
2013-05-20 18:06:00,72.0,60.8,30.03,SSW,206,5.8,10.5,68,0.00,,---,0.00,VWS V14.01,2013-05-20 22:06:00,
2013-05-20 18:11:00,72.1,61.0,30.03,SW,214,8.3,10.5,68,0.00,,---,0.00,VWS V14.01,2013-05-20 22:11:00,
2013-05-20 18:16:00,71.2,60.6,30.06,South,186,9.6,10.1,69,0.00,,---,0.00,VWS V14.01,2013-05-20 22:16:00,
2013-05-20 18:21:00,71.2,60.6,30.06,SSW,197,6.3,9.6,69,0.00,,---,0.00,VWS V14.01,2013-05-20 22:21:00,
2013-05-20 18:26:00,71.1,60.8,30.06,SSW,208,4.0,7.6,70,0.00,,---,0.00,VWS V14.01,2013-05-20 22:26:00,
2013-05-20 18:31:00,70.9,60.6,30.03,SW,236,8.7,8.7,70,0.00,,---,0.00,VWS V14.01,2013-05-20 22:31:00,
2013-05-20 18:36:00,70.9,60.6,30.03,SW,223,11.0,11.0,70,0.00,,---,0.00,VWS V14.01,2013-05-20 22:36:00,
2013-05-20 18:41:00,70.0,60.2,30.03,West,266,4.0,4.0,71,0.00,,---,0.00,VWS V14.01,2013-05-20 22:41:00,
2013-05-20 18:46:00,70.0,60.2,30.06,WSW,250,5.8,5.8,71,0.00,,---,0.00,VWS V14.01,2013-05-20 22:46:00,
2013-05-20 18:51:00,69.6,60.2,30.06,WSW,247,8.1,8.1,72,0.00,,---,0.00,VWS V14.01,2013-05-20 22:51:00,
2013-05-20 18:56:00,69.1,60.1,30.06,SSW,209,8.1,10.1,73,0.00,,---,0.00,VWS V14.01,2013-05-20 22:56:00,
2013-05-20 19:01:00,68.7,60.5,30.06,SW,231,12.8,12.8,75,0.00,,---,0.00,VWS V14.01,2013-05-20 23:01:00,
2013-05-20 19:06:00,68.4,60.5,30.06,WSW,241,8.1,12.3,76,0.00,,---,0.00,VWS V14.01,2013-05-20 23:06:00,
2013-05-20 19:11:00,68.4,60.9,30.06,SSW,203,4.0,11.0,77,0.00,,---,0.00,VWS V14.01,2013-05-20 23:11:00,
2013-05-20 19:16:00,67.8,60.7,30.06,WSW,239,11.0,11.0,78,0.00,,---,0.00,VWS V14.01,2013-05-20 23:16:00,
2013-05-20 19:21:00,67.8,60.7,30.06,SSW,207,5.8,6.7,78,0.00,,---,0.00,VWS V14.01,2013-05-20 23:21:00,
2013-05-20 19:26:00,67.6,60.5,30.06,WSW,252,11.0,11.0,78,0.00,,---,0.00,VWS V14.01,2013-05-20 23:26:00,
2013-05-20 19:31:00,67.3,60.2,30.06,SSW,207,7.6,7.6,78,0.00,,---,0.00,VWS V14.01,2013-05-20 23:31:00,
2013-05-20 19:36:00,66.9,60.2,30.06,SW,214,6.3,6.3,79,0.00,,---,0.00,VWS V14.01,2013-05-20 23:36:00,
2013-05-20 19:41:00,66.7,60.4,30.06,SSW,202,10.5,10.5,80,0.00,,---,0.00,VWS V14.01,2013-05-20 23:41:00,
2013-05-20 19:46:00,66.2,59.9,30.06,SW,222,11.0,11.0,80,0.00,,---,0.00,VWS V14.01,2013-05-20 23:46:00,
2013-05-20 19:51:00,65.8,60.2,30.06,SSW,202,5.8,8.7,82,0.00,,---,0.00,VWS V14.01,2013-05-20 23:51:00,
2013-05-20 19:56:00,65.7,60.0,30.06,West,265,6.3,6.3,82,0.00,,---,0.00,VWS V14.01,2013-05-20 23:56:00,
2013-05-20 20:01:00,65.1,59.8,30.06,WSW,242,7.6,7.6,83,0.00,,---,0.00,VWS V14.01,2013-05-21 00:01:00,
2013-05-20 20:06:00,64.8,60.2,30.06,SW,215,11.0,11.0,85,0.00,,---,0.00,VWS V14.01,2013-05-21 00:06:00,
2013-05-20 20:11:00,64.8,60.5,30.06,WSW,237,10.5,10.5,86,0.00,,---,0.00,VWS V14.01,2013-05-21 00:11:00,
2013-05-20 20:16:00,64.6,60.6,30.03,West,274,4.0,6.3,87,0.00,,---,0.00,VWS V14.01,2013-05-21 00:16:00,
2013-05-20 20:21:00,64.6,60.6,30.03,SW,221,3.1,3.1,87,0.00,,---,0.00,VWS V14.01,2013-05-21 00:21:00,
2013-05-20 20:26:00,64.4,60.5,30.03,WSW,245,7.6,7.6,87,0.00,,---,0.00,VWS V14.01,2013-05-21 00:26:00,
2013-05-20 20:31:00,64.4,60.8,30.06,SSW,202,6.3,6.3,88,0.00,,---,0.00,VWS V14.01,2013-05-21 00:31:00,
2013-05-20 20:36:00,64.4,60.8,30.06,SSW,213,8.7,8.7,88,0.00,,---,0.00,VWS V14.01,2013-05-21 00:36:00,
2013-05-20 20:41:00,64.4,60.5,30.06,WSW,242,6.3,6.3,87,0.00,,---,0.00,VWS V14.01,2013-05-21 00:41:00,
2013-05-20 20:46:00,64.2,60.6,30.06,WSW,250,6.7,8.7,88,0.00,,---,0.00,VWS V14.01,2013-05-21 00:46:00,
2013-05-20 20:51:00,64.0,60.4,30.06,SW,224,8.3,8.3,88,0.00,,---,0.00,VWS V14.01,2013-05-21 00:51:00,
2013-05-20 20:56:00,63.9,60.2,30.06,SSW,210,8.1,8.3,88,0.00,,---,0.00,VWS V14.01,2013-05-21 00:56:00,
2013-05-20 21:01:00,63.7,60.1,30.06,SW,226,8.7,8.7,88,0.00,,---,0.00,VWS V14.01,2013-05-21 01:01:00,
2013-05-20 21:06:00,63.5,59.9,30.06,WSW,246,6.3,8.3,88,0.00,,---,0.00,VWS V14.01,2013-05-21 01:06:00,
2013-05-20 21:11:00,63.5,60.2,30.06,SW,230,5.4,8.7,89,0.00,,---,0.00,VWS V14.01,2013-05-21 01:11:00,
2013-05-20 21:16:00,63.5,60.2,30.06,WSW,248,8.7,8.7,89,0.00,,---,0.00,VWS V14.01,2013-05-21 01:16:00,
2013-05-20 21:21:00,63.3,60.0,30.06,West,261,5.4,6.3,89,0.00,,---,0.00,VWS V14.01,2013-05-21 01:21:00,
2013-05-20 21:26:00,63.3,60.0,30.06,SSW,199,7.6,7.6,89,0.00,,---,0.00,VWS V14.01,2013-05-21 01:26:00,
2013-05-20 21:31:00,63.3,60.0,30.06,SW,226,2.2,8.1,89,0.00,,---,0.00,VWS V14.01,2013-05-21 01:31:00,
2013-05-20 21:36:00,63.3,60.3,30.06,WSW,252,11.0,11.0,90,0.00,,---,0.00,VWS V14.01,2013-05-21 01:36:00,
2013-05-20 21:41:00,63.3,60.3,30.06,WSW,251,5.8,12.3,90,0.00,,---,0.00,VWS V14.01,2013-05-21 01:41:00,
2013-05-20 21:46:00,63.3,60.3,30.06,SW,220,6.7,6.7,90,0.00,,---,0.00,VWS V14.01,2013-05-21 01:46:00,
2013-05-20 21:51:00,63.5,60.8,30.06,SSW,207,5.4,5.4,91,0.00,,---,0.00,VWS V14.01,2013-05-21 01:51:00,
2013-05-20 21:56:00,63.5,60.8,30.06,WSW,253,4.0,5.4,91,0.00,,---,0.00,VWS V14.01,2013-05-21 01:56:00,
2013-05-20 22:01:00,63.7,61.0,30.06,WSW,250,5.4,5.4,91,0.00,,---,0.00,VWS V14.01,2013-05-21 02:01:00,
2013-05-20 22:06:00,63.9,61.2,30.06,South,187,3.6,5.8,91,0.00,,---,0.00,VWS V14.01,2013-05-21 02:06:00,
2013-05-20 22:11:00,63.9,61.5,30.06,SW,228,10.1,10.1,92,0.00,,---,0.00,VWS V14.01,2013-05-21 02:11:00,
2013-05-20 22:16:00,63.9,61.5,30.06,SW,223,10.1,10.1,92,0.00,,---,0.00,VWS V14.01,2013-05-21 02:16:00,
2013-05-20 22:21:00,63.7,61.3,30.06,WSW,251,8.1,8.1,92,0.00,,---,0.00,VWS V14.01,2013-05-21 02:21:00,
2013-05-20 22:26:00,63.7,61.0,30.06,West,281,7.6,7.6,91,0.00,,---,0.00,VWS V14.01,2013-05-21 02:26:00,
2013-05-20 22:31:00,63.5,60.8,30.06,SW,232,8.3,8.3,91,0.00,,---,0.00,VWS V14.01,2013-05-21 02:31:00,
2013-05-20 22:36:00,63.7,61.0,30.06,WSW,237,4.0,4.0,91,0.00,,---,0.00,VWS V14.01,2013-05-21 02:36:00,
2013-05-20 22:41:00,63.7,61.0,30.06,SW,224,6.3,6.3,91,0.00,,---,0.00,VWS V14.01,2013-05-21 02:41:00,
2013-05-20 22:46:00,63.5,60.8,30.06,WSW,253,3.6,3.6,91,0.00,,---,0.00,VWS V14.01,2013-05-21 02:46:00,
2013-05-20 22:51:00,63.5,60.8,30.06,SSW,194,4.9,4.9,91,0.00,,---,0.00,VWS V14.01,2013-05-21 02:51:00,
2013-05-20 22:56:00,63.7,61.0,30.06,WSW,239,8.1,8.1,91,0.00,,---,0.00,VWS V14.01,2013-05-21 02:56:00,
2013-05-20 23:01:00,63.7,61.0,30.06,SW,227,7.6,7.6,91,0.00,,---,0.00,VWS V14.01,2013-05-21 03:01:00,
2013-05-20 23:06:00,63.5,60.8,30.06,SW,224,8.3,8.3,91,0.00,,---,0.00,VWS V14.01,2013-05-21 03:06:00,
2013-05-20 23:11:00,63.3,60.7,30.06,SSW,212,4.9,7.2,91,0.00,,---,0.00,VWS V14.01,2013-05-21 03:11:00,
2013-05-20 23:16:00,63.1,60.5,30.06,SW,216,5.8,5.8,91,0.00,,---,0.00,VWS V14.01,2013-05-21 03:16:00,
2013-05-20 23:21:00,63.1,60.5,30.06,SW,219,4.9,4.9,91,0.00,,---,0.00,VWS V14.01,2013-05-21 03:21:00,
2013-05-20 23:26:00,63.1,60.5,30.06,SW,231,6.3,8.1,91,0.00,,---,0.00,VWS V14.01,2013-05-21 03:26:00,
2013-05-20 23:31:00,63.1,60.5,30.06,WSW,252,6.3,6.3,91,0.00,,---,0.00,VWS V14.01,2013-05-21 03:31:00,
2013-05-20 23:36:00,63.0,60.3,30.06,SSW,192,5.8,5.8,91,0.00,,---,0.00,VWS V14.01,2013-05-21 03:36:00,
2013-05-20 23:41:00,63.0,60.3,30.06,SSW,195,4.9,5.4,91,0.00,,---,0.00,VWS V14.01,2013-05-21 03:41:00,
2013-05-20 23:46:00,62.6,59.6,30.06,SSW,196,3.6,5.8,90,0.00,,---,0.00,VWS V14.01,2013-05-21 03:46:00,
2013-05-20 23:51:00,62.6,59.6,30.06,SSW,199,3.6,5.8,90,0.00,,---,0.00,VWS V14.01,2013-05-21 03:51:00,
2013-05-20 23:56:00,62.6,59.6,30.06,WSW,243,5.4,5.4,90,0.00,,---,0.00,VWS V14.01,2013-05-21 03:56:00,